sensor_id;sensor_type;location;lat;lon;timestamp;pressure;altitude;pressure_sealevel;temperature;humidity
11712;BME280;5912;51.034;6.984;2023-04-02T00:04:44;56556.66;;;-142.13;80.32
11712;BME280;5912;51.034;6.984;2023-04-02T00:07:30;56522.59;;;-142.13;80.52
11712;BME280;5912;51.034;6.984;2023-04-02T00:09:57;56540.63;;;-142.13;80.33
11712;BME280;5912;51.034;6.984;2023-04-02T00:12:22;56572.69;;;-142.13;80.53
11712;BME280;5912;51.034;6.984;2023-04-02T00:14:52;56528.59;;;-142.13;80.36
11712;BME280;5912;51.034;6.984;2023-04-02T00:17:20;56538.63;;;-142.13;80.39
11712;BME280;5912;51.034;6.984;2023-04-02T00:19:55;56528.59;;;-142.13;79.94
11712;BME280;5912;51.034;6.984;2023-04-02T00:22:26;56544.63;;;-142.13;78.70
11712;BME280;5912;51.034;6.984;2023-04-02T00:24:54;56560.66;;;-142.13;78.11
11712;BME280;5912;51.034;6.984;2023-04-02T00:27:20;56564.66;;;-142.13;76.88
11712;BME280;5912;51.034;6.984;2023-04-02T00:29:53;56554.66;;;-142.13;76.87
11712;BME280;5912;51.034;6.984;2023-04-02T00:32:23;56546.63;;;-142.13;76.79
11712;BME280;5912;51.034;6.984;2023-04-02T00:34:49;56566.66;;;-142.13;76.96
11712;BME280;5912;51.034;6.984;2023-04-02T00:37:17;56564.66;;;-142.13;77.22
11712;BME280;5912;51.034;6.984;2023-04-02T00:39:49;56564.66;;;-142.13;77.51
11712;BME280;5912;51.034;6.984;2023-04-02T00:42:15;56544.63;;;-142.13;77.46
11712;BME280;5912;51.034;6.984;2023-04-02T00:44:43;56536.63;;;-142.13;77.06
11712;BME280;5912;51.034;6.984;2023-04-02T00:47:20;56540.63;;;-142.13;76.73
11712;BME280;5912;51.034;6.984;2023-04-02T00:49:49;56560.66;;;-142.13;76.86
11712;BME280;5912;51.034;6.984;2023-04-02T00:52:22;56536.63;;;-142.13;77.08
11712;BME280;5912;51.034;6.984;2023-04-02T00:55:14;56574.69;;;-142.13;76.79
11712;BME280;5912;51.034;6.984;2023-04-02T00:57:42;56578.69;;;-142.13;76.16
11712;BME280;5912;51.034;6.984;2023-04-02T01:00:20;56566.66;;;-142.13;76.22
11712;BME280;5912;51.034;6.984;2023-04-02T01:05:47;56584.69;;;-142.13;75.96
11712;BME280;5912;51.034;6.984;2023-04-02T01:11:42;56588.69;;;-142.13;76.49
11712;BME280;5912;51.034;6.984;2023-04-02T01:14:36;56574.69;;;-142.13;76.41
11712;BME280;5912;51.034;6.984;2023-04-02T01:22:32;56584.69;;;-142.13;75.86
11712;BME280;5912;51.034;6.984;2023-04-02T01:25:02;56574.69;;;-142.13;75.69
11712;BME280;5912;51.034;6.984;2023-04-02T01:27:41;56594.72;;;-142.13;75.23
11712;BME280;5912;51.034;6.984;2023-04-02T01:30:09;56592.72;;;-142.13;75.47
11712;BME280;5912;51.034;6.984;2023-04-02T01:32:37;56592.72;;;-142.13;75.04
11712;BME280;5912;51.034;6.984;2023-04-02T01:35:03;56572.69;;;-142.13;74.76
11712;BME280;5912;51.034;6.984;2023-04-02T01:37:40;56602.72;;;-142.13;75.09
11712;BME280;5912;51.034;6.984;2023-04-02T01:43:32;56560.66;;;-142.13;74.61
11712;BME280;5912;51.034;6.984;2023-04-02T01:46:05;56592.72;;;-142.13;74.93
11712;BME280;5912;51.034;6.984;2023-04-02T01:48:48;56544.63;;;-142.13;74.53
11712;BME280;5912;51.034;6.984;2023-04-02T01:51:25;56556.66;;;-142.13;74.27
11712;BME280;5912;51.034;6.984;2023-04-02T01:53:51;56592.72;;;-142.13;74.85
11712;BME280;5912;51.034;6.984;2023-04-02T01:56:17;56602.72;;;-142.13;74.63
11712;BME280;5912;51.034;6.984;2023-04-02T01:58:42;56602.72;;;-142.13;74.82
11712;BME280;5912;51.034;6.984;2023-04-02T02:01:13;56610.75;;;-142.13;74.77
11712;BME280;5912;51.034;6.984;2023-04-02T02:03:42;56590.72;;;-142.13;74.39
11712;BME280;5912;51.034;6.984;2023-04-02T02:06:12;56600.72;;;-142.13;74.64
11712;BME280;5912;51.034;6.984;2023-04-02T02:08:52;56580.69;;;-142.13;74.26
11712;BME280;5912;51.034;6.984;2023-04-02T02:11:20;56604.72;;;-142.13;74.22
11712;BME280;5912;51.034;6.984;2023-04-02T02:13:54;56584.69;;;-142.13;74.10
11712;BME280;5912;51.034;6.984;2023-04-02T02:16:21;56600.72;;;-142.13;74.67
11712;BME280;5912;51.034;6.984;2023-04-02T02:18:50;56588.69;;;-142.13;74.57
11712;BME280;5912;51.034;6.984;2023-04-02T02:21:43;56582.69;;;-142.13;74.81
11712;BME280;5912;51.034;6.984;2023-04-02T02:27:01;56618.75;;;-142.13;73.90
11712;BME280;5912;51.034;6.984;2023-04-02T02:29:30;56604.72;;;-142.13;74.20
11712;BME280;5912;51.034;6.984;2023-04-02T02:32:00;56582.69;;;-142.13;73.97
11712;BME280;5912;51.034;6.984;2023-04-02T02:34:36;56616.75;;;-142.13;73.98
11712;BME280;5912;51.034;6.984;2023-04-02T02:37:16;56612.75;;;-142.13;73.86
11712;BME280;5912;51.034;6.984;2023-04-02T02:39:47;56592.72;;;-142.13;73.31
11712;BME280;5912;51.034;6.984;2023-04-02T02:43:00;56582.69;;;-142.13;72.64
11712;BME280;5912;51.034;6.984;2023-04-02T02:45:22;56592.72;;;-142.13;73.22
11712;BME280;5912;51.034;6.984;2023-04-02T02:47:50;56568.66;;;-142.13;72.81
11712;BME280;5912;51.034;6.984;2023-04-02T02:50:20;56576.69;;;-142.13;73.34
11712;BME280;5912;51.034;6.984;2023-04-02T02:52:52;56604.72;;;-142.13;73.14
11712;BME280;5912;51.034;6.984;2023-04-02T02:55:22;56614.75;;;-142.13;73.06
11712;BME280;5912;51.034;6.984;2023-04-02T02:57:58;56586.69;;;-142.13;73.34
11712;BME280;5912;51.034;6.984;2023-04-02T03:00:27;56600.72;;;-142.13;73.02
11712;BME280;5912;51.034;6.984;2023-04-02T03:02:53;56594.72;;;-142.13;73.09
11712;BME280;5912;51.034;6.984;2023-04-02T03:05:23;56628.78;;;-142.13;72.68
11712;BME280;5912;51.034;6.984;2023-04-02T03:07:52;56610.75;;;-142.13;72.64
11712;BME280;5912;51.034;6.984;2023-04-02T03:10:22;56592.72;;;-142.13;73.14
11712;BME280;5912;51.034;6.984;2023-04-02T03:13:01;56604.72;;;-142.13;72.92
11712;BME280;5912;51.034;6.984;2023-04-02T03:18:18;56600.72;;;-142.13;73.20
11712;BME280;5912;51.034;6.984;2023-04-02T03:20:59;56620.75;;;-142.13;72.85
11712;BME280;5912;51.034;6.984;2023-04-02T03:23:36;56638.78;;;-142.13;73.02
11712;BME280;5912;51.034;6.984;2023-04-02T03:26:18;56644.81;;;-142.13;73.43
11712;BME280;5912;51.034;6.984;2023-04-02T03:28:56;56584.69;;;-142.13;73.47
11712;BME280;5912;51.034;6.984;2023-04-02T03:31:27;56614.75;;;-142.13;73.34
11712;BME280;5912;51.034;6.984;2023-04-02T03:34:03;56572.69;;;-142.13;72.73
11712;BME280;5912;51.034;6.984;2023-04-02T03:36:37;56596.72;;;-142.13;73.05
11712;BME280;5912;51.034;6.984;2023-04-02T03:39:10;56596.72;;;-142.13;73.36
11712;BME280;5912;51.034;6.984;2023-04-02T03:44:52;56604.72;;;-142.13;72.87
11712;BME280;5912;51.034;6.984;2023-04-02T03:47:42;56576.69;;;-142.13;72.71
11712;BME280;5912;51.034;6.984;2023-04-02T03:50:32;56650.81;;;-142.13;72.73
11712;BME280;5912;51.034;6.984;2023-04-02T03:53:01;56586.69;;;-142.13;72.82
11712;BME280;5912;51.034;6.984;2023-04-02T03:55:32;56610.75;;;-142.13;72.69
11712;BME280;5912;51.034;6.984;2023-04-02T03:58:02;56584.69;;;-142.13;73.04
11712;BME280;5912;51.034;6.984;2023-04-02T04:00:35;56642.78;;;-142.13;72.86
11712;BME280;5912;51.034;6.984;2023-04-02T04:03:09;56604.72;;;-142.13;73.16
11712;BME280;5912;51.034;6.984;2023-04-02T04:05:44;56620.75;;;-142.13;73.16
11712;BME280;5912;51.034;6.984;2023-04-02T04:08:18;56630.78;;;-142.13;73.53
11712;BME280;5912;51.034;6.984;2023-04-02T04:10:50;56626.78;;;-142.13;72.82
11712;BME280;5912;51.034;6.984;2023-04-02T04:13:21;56640.78;;;-142.13;72.66
11712;BME280;5912;51.034;6.984;2023-04-02T04:15:54;56608.75;;;-142.13;72.39
11712;BME280;5912;51.034;6.984;2023-04-02T04:18:30;56618.75;;;-142.13;72.40
11712;BME280;5912;51.034;6.984;2023-04-02T04:21:19;56604.72;;;-142.13;72.47
11712;BME280;5912;51.034;6.984;2023-04-02T04:23:54;56624.75;;;-142.13;72.85
11712;BME280;5912;51.034;6.984;2023-04-02T04:26:54;56618.75;;;-142.13;72.35
11712;BME280;5912;51.034;6.984;2023-04-02T04:29:40;56614.75;;;-142.13;72.54
11712;BME280;5912;51.034;6.984;2023-04-02T04:32:27;56630.78;;;-142.13;72.28
11712;BME280;5912;51.034;6.984;2023-04-02T04:35:05;56592.72;;;-142.13;72.46
11712;BME280;5912;51.034;6.984;2023-04-02T04:37:38;56600.72;;;-142.13;72.03
11712;BME280;5912;51.034;6.984;2023-04-02T04:40:30;56650.81;;;-142.13;71.70
11712;BME280;5912;51.034;6.984;2023-04-02T04:43:00;56630.78;;;-142.13;72.15
11712;BME280;5912;51.034;6.984;2023-04-02T04:45:29;56640.78;;;-142.13;72.15
11712;BME280;5912;51.034;6.984;2023-04-02T04:48:19;56642.78;;;-142.13;72.15
11712;BME280;5912;51.034;6.984;2023-04-02T04:50:56;56630.78;;;-142.13;72.46
11712;BME280;5912;51.034;6.984;2023-04-02T04:53:26;56588.69;;;-142.13;72.47
11712;BME280;5912;51.034;6.984;2023-04-02T04:56:10;56628.78;;;-142.13;71.51
11712;BME280;5912;51.034;6.984;2023-04-02T04:59:11;56618.75;;;-142.13;71.75
11712;BME280;5912;51.034;6.984;2023-04-02T05:01:45;56602.72;;;-142.13;72.17
11712;BME280;5912;51.034;6.984;2023-04-02T05:06:55;56628.78;;;-142.13;71.95
11712;BME280;5912;51.034;6.984;2023-04-02T05:19:58;56610.75;;;-142.13;72.21
11712;BME280;5912;51.034;6.984;2023-04-02T05:22:35;56638.78;;;-142.13;71.84
11712;BME280;5912;51.034;6.984;2023-04-02T05:27:45;56616.75;;;-142.13;71.92
11712;BME280;5912;51.034;6.984;2023-04-02T05:30:39;56622.75;;;-142.13;71.33
11712;BME280;5912;51.034;6.984;2023-04-02T05:33:05;56644.81;;;-142.13;71.16
11712;BME280;5912;51.034;6.984;2023-04-02T05:35:43;56586.69;;;-142.13;71.57
11712;BME280;5912;51.034;6.984;2023-04-02T05:38:18;56590.72;;;-142.13;71.39
11712;BME280;5912;51.034;6.984;2023-04-02T05:40:46;56630.78;;;-142.13;71.73
11712;BME280;5912;51.034;6.984;2023-04-02T05:43:17;56628.78;;;-142.13;71.84
11712;BME280;5912;51.034;6.984;2023-04-02T05:45:50;56624.75;;;-142.13;71.91
11712;BME280;5912;51.034;6.984;2023-04-02T05:48:36;56620.75;;;-142.13;71.35
11712;BME280;5912;51.034;6.984;2023-04-02T05:51:04;56644.81;;;-142.13;71.23
11712;BME280;5912;51.034;6.984;2023-04-02T05:53:39;56628.78;;;-142.13;70.58
11712;BME280;5912;51.034;6.984;2023-04-02T05:56:24;56638.78;;;-142.13;71.03
11712;BME280;5912;51.034;6.984;2023-04-02T05:58:55;56626.78;;;-142.13;71.47
11712;BME280;5912;51.034;6.984;2023-04-02T06:01:35;56600.72;;;-142.13;71.02
11712;BME280;5912;51.034;6.984;2023-04-02T06:04:25;56636.78;;;-142.13;71.36
11712;BME280;5912;51.034;6.984;2023-04-02T06:09:43;56636.78;;;-142.13;71.56
11712;BME280;5912;51.034;6.984;2023-04-02T06:12:42;56630.78;;;-142.13;71.35
11712;BME280;5912;51.034;6.984;2023-04-02T06:15:15;56676.84;;;-142.13;71.41
11712;BME280;5912;51.034;6.984;2023-04-02T06:17:48;56620.75;;;-142.13;71.31
11712;BME280;5912;51.034;6.984;2023-04-02T06:20:17;56624.75;;;-142.13;70.95
11712;BME280;5912;51.034;6.984;2023-04-02T06:22:47;56636.78;;;-142.13;70.76
11712;BME280;5912;51.034;6.984;2023-04-02T06:25:21;56654.81;;;-142.13;70.72
11712;BME280;5912;51.034;6.984;2023-04-02T06:27:50;56640.78;;;-142.13;71.08
11712;BME280;5912;51.034;6.984;2023-04-02T06:30:20;56632.78;;;-142.13;70.91
11712;BME280;5912;51.034;6.984;2023-04-02T06:32:47;56680.84;;;-142.13;71.10
11712;BME280;5912;51.034;6.984;2023-04-02T06:35:13;56620.75;;;-142.13;71.45
11712;BME280;5912;51.034;6.984;2023-04-02T06:37:42;56648.81;;;-142.13;70.65
11712;BME280;5912;51.034;6.984;2023-04-02T06:40:56;56636.78;;;-142.13;70.27
11712;BME280;5912;51.034;6.984;2023-04-02T06:43:33;56618.75;;;-142.13;70.47
11712;BME280;5912;51.034;6.984;2023-04-02T06:46:08;56634.78;;;-142.13;70.55
11712;BME280;5912;51.034;6.984;2023-04-02T06:48:36;56604.72;;;-142.13;70.18
11712;BME280;5912;51.034;6.984;2023-04-02T06:51:08;56660.81;;;-142.13;70.22
11712;BME280;5912;51.034;6.984;2023-04-02T06:53:37;56592.72;;;-142.13;70.85
11712;BME280;5912;51.034;6.984;2023-04-02T06:58:32;56666.84;;;-142.13;69.77
11712;BME280;5912;51.034;6.984;2023-04-02T07:00:58;56646.81;;;-142.13;69.80
11712;BME280;5912;51.034;6.984;2023-04-02T07:03:30;56692.88;;;-142.13;69.43
11712;BME280;5912;51.034;6.984;2023-04-02T07:05:58;56644.81;;;-142.13;69.43
11712;BME280;5912;51.034;6.984;2023-04-02T07:08:24;56646.81;;;-142.13;69.42
11712;BME280;5912;51.034;6.984;2023-04-02T07:10:50;56654.81;;;-142.13;69.66
11712;BME280;5912;51.034;6.984;2023-04-02T07:13:18;56624.75;;;-142.13;69.20
11712;BME280;5912;51.034;6.984;2023-04-02T07:15:45;56660.81;;;-142.13;69.38
11712;BME280;5912;51.034;6.984;2023-04-02T07:20:46;56628.78;;;-142.13;69.81
11712;BME280;5912;51.034;6.984;2023-04-02T07:23:11;56628.78;;;-142.13;69.57
11712;BME280;5912;51.034;6.984;2023-04-02T07:25:38;56626.78;;;-142.13;69.43
11712;BME280;5912;51.034;6.984;2023-04-02T07:28:03;56624.75;;;-142.13;68.32
11712;BME280;5912;51.034;6.984;2023-04-02T07:30:29;56636.78;;;-142.13;67.52
11712;BME280;5912;51.034;6.984;2023-04-02T07:32:54;56638.78;;;-142.13;67.53
11712;BME280;5912;51.034;6.984;2023-04-02T07:35:19;56634.78;;;-142.13;67.99
11712;BME280;5912;51.034;6.984;2023-04-02T07:37:45;56674.84;;;-142.13;68.07
11712;BME280;5912;51.034;6.984;2023-04-02T07:40:18;56642.78;;;-142.13;67.89
11712;BME280;5912;51.034;6.984;2023-04-02T07:42:46;56590.72;;;-142.13;68.00
11712;BME280;5912;51.034;6.984;2023-04-02T07:45:12;56604.72;;;-142.13;67.91
11712;BME280;5912;51.034;6.984;2023-04-02T07:47:37;56632.78;;;-142.13;68.00
11712;BME280;5912;51.034;6.984;2023-04-02T07:50:03;56616.75;;;-142.13;67.57
11712;BME280;5912;51.034;6.984;2023-04-02T07:52:28;56624.75;;;-142.13;67.15
11712;BME280;5912;51.034;6.984;2023-04-02T07:54:55;56618.75;;;-142.13;66.67
11712;BME280;5912;51.034;6.984;2023-04-02T07:57:20;56628.78;;;-142.13;66.93
11712;BME280;5912;51.034;6.984;2023-04-02T07:59:46;56636.78;;;-142.13;66.33
11712;BME280;5912;51.034;6.984;2023-04-02T08:02:19;56618.75;;;-142.13;66.42
11712;BME280;5912;51.034;6.984;2023-04-02T08:04:45;56644.81;;;-142.13;66.81
11712;BME280;5912;51.034;6.984;2023-04-02T08:07:10;56612.75;;;-142.13;65.56
11712;BME280;5912;51.034;6.984;2023-04-02T08:09:36;56604.72;;;-142.13;65.97
11712;BME280;5912;51.034;6.984;2023-04-02T08:12:01;56626.78;;;-142.13;66.64
11712;BME280;5912;51.034;6.984;2023-04-02T08:14:26;56618.75;;;-142.13;66.64
11712;BME280;5912;51.034;6.984;2023-04-02T08:16:54;56596.72;;;-142.13;66.24
11712;BME280;5912;51.034;6.984;2023-04-02T08:19:20;56616.75;;;-142.13;65.29
11712;BME280;5912;51.034;6.984;2023-04-02T08:21:46;56612.75;;;-142.13;64.73
11712;BME280;5912;51.034;6.984;2023-04-02T08:24:15;56634.78;;;-142.13;65.60
11712;BME280;5912;51.034;6.984;2023-04-02T08:26:43;56632.78;;;-142.13;65.00
11712;BME280;5912;51.034;6.984;2023-04-02T08:29:09;56620.75;;;-142.13;64.44
11712;BME280;5912;51.034;6.984;2023-04-02T08:31:34;56600.72;;;-142.13;64.54
11712;BME280;5912;51.034;6.984;2023-04-02T08:33:59;56604.72;;;-142.13;64.26
11712;BME280;5912;51.034;6.984;2023-04-02T08:36:28;56610.75;;;-142.13;62.82
11712;BME280;5912;51.034;6.984;2023-04-02T08:38:54;56586.69;;;-142.13;62.84
11712;BME280;5912;51.034;6.984;2023-04-02T08:41:22;56584.69;;;-142.13;62.94
11712;BME280;5912;51.034;6.984;2023-04-02T08:44:28;56600.72;;;-142.13;63.05
11712;BME280;5912;51.034;6.984;2023-04-02T08:47:01;56598.72;;;-142.13;62.73
11712;BME280;5912;51.034;6.984;2023-04-02T08:49:31;56612.75;;;-142.13;63.42
11712;BME280;5912;51.034;6.984;2023-04-02T08:51:59;56596.72;;;-142.13;63.08
11712;BME280;5912;51.034;6.984;2023-04-02T08:54:43;56620.75;;;-142.13;63.33
11712;BME280;5912;51.034;6.984;2023-04-02T08:59:54;56588.69;;;-142.13;62.07
11712;BME280;5912;51.034;6.984;2023-04-02T09:02:37;56600.72;;;-142.13;62.56
11712;BME280;5912;51.034;6.984;2023-04-02T09:08:26;56618.75;;;-142.13;61.58
11712;BME280;5912;51.034;6.984;2023-04-02T09:13:24;56578.69;;;-142.13;60.60
11712;BME280;5912;51.034;6.984;2023-04-02T09:16:07;56582.69;;;-142.13;60.28
11712;BME280;5912;51.034;6.984;2023-04-02T09:18:34;56606.75;;;-142.13;59.09
11712;BME280;5912;51.034;6.984;2023-04-02T09:21:14;56562.66;;;-142.13;59.79
11712;BME280;5912;51.034;6.984;2023-04-02T09:23:42;56588.69;;;-142.13;59.61
11712;BME280;5912;51.034;6.984;2023-04-02T09:26:37;56580.69;;;-142.13;59.02
11712;BME280;5912;51.034;6.984;2023-04-02T09:31:44;56584.69;;;-142.13;58.78
11712;BME280;5912;51.034;6.984;2023-04-02T09:34:30;56582.69;;;-142.13;59.26
11712;BME280;5912;51.034;6.984;2023-04-02T09:36:56;56584.69;;;-142.13;58.54
11712;BME280;5912;51.034;6.984;2023-04-02T09:39:31;56598.72;;;-142.13;59.28
11712;BME280;5912;51.034;6.984;2023-04-02T09:41:56;56596.72;;;-142.13;59.75
11712;BME280;5912;51.034;6.984;2023-04-02T09:44:26;56584.69;;;-142.13;59.22
11712;BME280;5912;51.034;6.984;2023-04-02T09:47:05;56594.72;;;-142.13;58.99
11712;BME280;5912;51.034;6.984;2023-04-02T09:49:40;56594.72;;;-142.13;59.71
11712;BME280;5912;51.034;6.984;2023-04-02T09:57:45;56516.59;;;-142.13;59.97
11712;BME280;5912;51.034;6.984;2023-04-02T10:02:44;56582.69;;;-142.13;59.34
11712;BME280;5912;51.034;6.984;2023-04-02T10:05:23;56590.72;;;-142.13;59.76
11712;BME280;5912;51.034;6.984;2023-04-02T10:07:50;56598.72;;;-142.13;60.10
11712;BME280;5912;51.034;6.984;2023-04-02T10:10:32;56572.69;;;-142.13;59.08
11712;BME280;5912;51.034;6.984;2023-04-02T10:13:07;56588.69;;;-142.13;58.87
11712;BME280;5912;51.034;6.984;2023-04-02T10:21:32;56556.66;;;-142.13;58.04
11712;BME280;5912;51.034;6.984;2023-04-02T10:23:59;56584.69;;;-142.13;57.95
11712;BME280;5912;51.034;6.984;2023-04-02T10:34:55;56582.69;;;-142.13;56.20
11712;BME280;5912;51.034;6.984;2023-04-02T10:37:39;56594.72;;;-142.13;56.52
11712;BME280;5912;51.034;6.984;2023-04-02T10:40:27;56568.66;;;-142.13;56.48
11712;BME280;5912;51.034;6.984;2023-04-02T10:43:27;56546.63;;;-142.13;56.20
11712;BME280;5912;51.034;6.984;2023-04-02T10:46:03;56560.66;;;-142.13;55.43
11712;BME280;5912;51.034;6.984;2023-04-02T10:51:22;56584.69;;;-142.13;55.46
11712;BME280;5912;51.034;6.984;2023-04-02T10:56:21;56568.66;;;-142.13;54.17
11712;BME280;5912;51.034;6.984;2023-04-02T10:58:57;56548.63;;;-142.13;55.15
11712;BME280;5912;51.034;6.984;2023-04-02T11:01:28;56548.63;;;-142.13;54.81
11712;BME280;5912;51.034;6.984;2023-04-02T11:03:58;56542.63;;;-142.13;53.66
11712;BME280;5912;51.034;6.984;2023-04-02T11:06:38;56538.63;;;-142.13;54.20
11712;BME280;5912;51.034;6.984;2023-04-02T11:09:14;56546.63;;;-142.13;52.94
11712;BME280;5912;51.034;6.984;2023-04-02T11:11:42;56526.59;;;-142.13;52.10
11712;BME280;5912;51.034;6.984;2023-04-02T11:14:12;56548.63;;;-142.13;51.99
11712;BME280;5912;51.034;6.984;2023-04-02T11:16:39;56524.59;;;-142.13;51.89
11712;BME280;5912;51.034;6.984;2023-04-02T11:21:56;56536.63;;;-142.13;52.06
11712;BME280;5912;51.034;6.984;2023-04-02T11:27:13;56524.59;;;-142.13;51.62
11712;BME280;5912;51.034;6.984;2023-04-02T11:29:44;56532.63;;;-142.13;51.32
11712;BME280;5912;51.034;6.984;2023-04-02T11:37:44;56542.63;;;-142.13;49.99
11712;BME280;5912;51.034;6.984;2023-04-02T11:42:36;56508.56;;;-142.13;50.86
11712;BME280;5912;51.034;6.984;2023-04-02T11:50:34;56518.59;;;-142.13;49.62
11712;BME280;5912;51.034;6.984;2023-04-02T11:53:16;56510.56;;;-142.13;49.31
11712;BME280;5912;51.034;6.984;2023-04-02T12:09:46;56516.59;;;-142.13;49.11
11712;BME280;5912;51.034;6.984;2023-04-02T12:12:25;56504.56;;;-142.13;49.67
11712;BME280;5912;51.034;6.984;2023-04-02T12:14:53;56548.63;;;-142.13;49.87
11712;BME280;5912;51.034;6.984;2023-04-02T12:17:31;56516.59;;;-142.13;48.94
11712;BME280;5912;51.034;6.984;2023-04-02T12:22:36;56544.63;;;-142.13;49.34
11712;BME280;5912;51.034;6.984;2023-04-02T12:27:47;56524.59;;;-142.13;49.78
11712;BME280;5912;51.034;6.984;2023-04-02T12:30:19;56528.59;;;-142.13;48.86
11712;BME280;5912;51.034;6.984;2023-04-02T12:32:45;56556.66;;;-142.13;48.86
11712;BME280;5912;51.034;6.984;2023-04-02T12:35:33;56526.59;;;-142.13;48.91
11712;BME280;5912;51.034;6.984;2023-04-02T12:37:59;56795.06;;;-142.13;49.20
11712;BME280;5912;51.034;6.984;2023-04-02T12:40:26;56638.78;;;-142.13;49.53
11712;BME280;5912;51.034;6.984;2023-04-02T12:42:51;56516.59;;;-142.13;49.79
11712;BME280;5912;51.034;6.984;2023-04-02T12:45:24;56534.63;;;-142.13;49.40
11712;BME280;5912;51.034;6.984;2023-04-02T12:47:51;56524.59;;;-142.13;48.91
11712;BME280;5912;51.034;6.984;2023-04-02T12:50:18;56552.66;;;-142.13;48.79
11712;BME280;5912;51.034;6.984;2023-04-02T12:52:45;56536.63;;;-142.13;48.73
11712;BME280;5912;51.034;6.984;2023-04-02T12:55:21;56528.59;;;-142.13;48.33
11712;BME280;5912;51.034;6.984;2023-04-02T12:57:47;56546.63;;;-142.13;48.83
11712;BME280;5912;51.034;6.984;2023-04-02T13:02:48;56534.63;;;-142.13;47.04
11712;BME280;5912;51.034;6.984;2023-04-02T13:05:32;56516.59;;;-142.13;46.75
11712;BME280;5912;51.034;6.984;2023-04-02T13:07:58;56536.63;;;-142.13;45.55
11712;BME280;5912;51.034;6.984;2023-04-02T13:10:25;56468.50;;;-142.13;46.20
11712;BME280;5912;51.034;6.984;2023-04-02T13:12:58;56496.56;;;-142.13;45.46
11712;BME280;5912;51.034;6.984;2023-04-02T13:15:31;56494.56;;;-142.13;46.46
11712;BME280;5912;51.034;6.984;2023-04-02T13:20:39;56504.56;;;-142.13;45.43
11712;BME280;5912;51.034;6.984;2023-04-02T13:23:37;56500.56;;;-142.13;45.10
11712;BME280;5912;51.034;6.984;2023-04-02T13:26:13;56512.59;;;-142.13;44.51
11712;BME280;5912;51.034;6.984;2023-04-02T13:28:40;56516.59;;;-142.13;45.24
11712;BME280;5912;51.034;6.984;2023-04-02T13:31:13;56484.53;;;-142.13;44.97
11712;BME280;5912;51.034;6.984;2023-04-02T13:33:40;56510.56;;;-142.13;44.97
11712;BME280;5912;51.034;6.984;2023-04-02T13:36:07;56478.53;;;-142.13;44.33
11712;BME280;5912;51.034;6.984;2023-04-02T13:38:33;56484.53;;;-142.13;44.61
11712;BME280;5912;51.034;6.984;2023-04-02T13:40:59;56468.50;;;-142.13;43.53
11712;BME280;5912;51.034;6.984;2023-04-02T13:43:24;56480.53;;;-142.13;42.96
11712;BME280;5912;51.034;6.984;2023-04-02T13:45:51;56476.53;;;-142.13;42.86
11712;BME280;5912;51.034;6.984;2023-04-02T13:48:18;56480.53;;;-142.13;43.07
11712;BME280;5912;51.034;6.984;2023-04-02T13:50:43;56506.56;;;-142.13;43.36
11712;BME280;5912;51.034;6.984;2023-04-02T13:53:20;56498.56;;;-142.13;44.04
11712;BME280;5912;51.034;6.984;2023-04-02T13:55:46;56480.53;;;-142.13;43.53
11712;BME280;5912;51.034;6.984;2023-04-02T13:58:11;56490.53;;;-142.13;43.66
11712;BME280;5912;51.034;6.984;2023-04-02T14:00:37;56486.53;;;-142.13;43.44
11712;BME280;5912;51.034;6.984;2023-04-02T14:03:22;56500.56;;;-142.13;43.54
11712;BME280;5912;51.034;6.984;2023-04-02T14:08:44;56512.59;;;-142.13;44.04
11712;BME280;5912;51.034;6.984;2023-04-02T14:25:33;56500.56;;;-142.13;43.87
11712;BME280;5912;51.034;6.984;2023-04-02T14:28:13;56500.56;;;-142.13;43.56
11712;BME280;5912;51.034;6.984;2023-04-02T14:31:11;56516.59;;;-142.13;42.67
11712;BME280;5912;51.034;6.984;2023-04-02T14:39:22;56482.53;;;-142.13;43.56
11712;BME280;5912;51.034;6.984;2023-04-02T14:42:06;56492.53;;;-142.13;42.47
11712;BME280;5912;51.034;6.984;2023-04-02T14:44:43;56490.53;;;-142.13;42.73
11712;BME280;5912;51.034;6.984;2023-04-02T14:47:49;56504.56;;;-142.13;43.05
11712;BME280;5912;51.034;6.984;2023-04-02T14:50:18;56520.59;;;-142.13;42.95
11712;BME280;5912;51.034;6.984;2023-04-02T14:52:49;56510.56;;;-142.13;42.43
11712;BME280;5912;51.034;6.984;2023-04-02T14:55:31;56540.63;;;-142.13;42.85
11712;BME280;5912;51.034;6.984;2023-04-02T14:58:02;56494.56;;;-142.13;42.85
11712;BME280;5912;51.034;6.984;2023-04-02T15:00:38;56506.56;;;-142.13;42.86
11712;BME280;5912;51.034;6.984;2023-04-02T15:03:23;56546.63;;;-142.13;43.32
11712;BME280;5912;51.034;6.984;2023-04-02T15:05:56;56546.63;;;-142.13;42.64
11712;BME280;5912;51.034;6.984;2023-04-02T15:08:24;56510.56;;;-142.13;42.99
11712;BME280;5912;51.034;6.984;2023-04-02T15:11:11;56508.56;;;-142.13;42.84
11712;BME280;5912;51.034;6.984;2023-04-02T15:13:52;56496.56;;;-142.13;42.14
11712;BME280;5912;51.034;6.984;2023-04-02T15:16:21;56512.59;;;-142.13;43.22
11712;BME280;5912;51.034;6.984;2023-04-02T15:18:52;56524.59;;;-142.13;42.80
11712;BME280;5912;51.034;6.984;2023-04-02T15:23:55;56512.59;;;-142.13;42.28
11712;BME280;5912;51.034;6.984;2023-04-02T15:29:18;56482.53;;;-142.13;41.15
11712;BME280;5912;51.034;6.984;2023-04-02T15:31:46;56526.59;;;-142.13;41.20
11712;BME280;5912;51.034;6.984;2023-04-02T15:34:23;56512.59;;;-142.13;40.76
11712;BME280;5912;51.034;6.984;2023-04-02T15:37:14;56514.59;;;-142.13;40.86
11712;BME280;5912;51.034;6.984;2023-04-02T15:40:06;56536.63;;;-142.13;41.30
11712;BME280;5912;51.034;6.984;2023-04-02T15:45:32;56548.63;;;-142.13;41.41
11712;BME280;5912;51.034;6.984;2023-04-02T15:48:09;56544.63;;;-142.13;41.87
11712;BME280;5912;51.034;6.984;2023-04-02T15:50:55;56526.59;;;-142.13;41.17
11712;BME280;5912;51.034;6.984;2023-04-02T15:53:34;56520.59;;;-142.13;42.01
11712;BME280;5912;51.034;6.984;2023-04-02T15:59:17;56534.63;;;-142.13;41.94
11712;BME280;5912;51.034;6.984;2023-04-02T16:10:09;56512.59;;;-142.13;41.63
11712;BME280;5912;51.034;6.984;2023-04-02T16:12:38;56564.66;;;-142.13;42.30
11712;BME280;5912;51.034;6.984;2023-04-02T16:15:25;56592.72;;;-142.13;42.24
11712;BME280;5912;51.034;6.984;2023-04-02T16:17:57;56528.59;;;-142.13;42.73